createdAt,value
2023-06-07T00:01:07.615Z,17.90
2023-06-07T00:03:35.961Z,17.80
2023-06-07T00:06:04.328Z,17.80
2023-06-07T00:08:32.202Z,17.90
2023-06-07T00:11:00.415Z,17.80
2023-06-07T00:13:28.294Z,17.80
2023-06-07T00:15:57.489Z,17.90
2023-06-07T00:18:25.874Z,17.80
2023-06-07T00:20:53.769Z,17.70
2023-06-07T00:23:22.855Z,17.60
2023-06-07T00:25:50.892Z,17.60
2023-06-07T00:28:18.812Z,17.60
2023-06-07T00:30:46.685Z,17.60
2023-06-07T00:33:16.056Z,17.50
2023-06-07T00:35:44.045Z,17.50
2023-06-07T00:38:11.949Z,17.40
2023-06-07T00:40:39.768Z,17.40
2023-06-07T00:43:07.663Z,17.40
2023-06-07T00:45:35.580Z,17.30
2023-06-07T00:48:03.924Z,17.30
2023-06-07T00:50:33.255Z,17.30
2023-06-07T00:53:01.401Z,17.30
2023-06-07T00:55:29.400Z,17.30
2023-06-07T00:57:58.062Z,17.20
2023-06-07T01:00:26.728Z,17.20
2023-06-07T01:02:56.658Z,17.20
2023-06-07T01:05:24.730Z,17.20
2023-06-07T01:07:55.727Z,17.10
2023-06-07T01:10:23.771Z,17.10
2023-06-07T01:12:55.856Z,17.10
2023-06-07T01:15:25.391Z,17.10
2023-06-07T01:17:54.820Z,17.10
2023-06-07T01:20:24.984Z,17.00
2023-06-07T01:22:57.971Z,17.10
2023-06-07T01:25:27.754Z,17.00
2023-06-07T01:27:58.010Z,17.00
2023-06-07T01:30:26.888Z,16.90
2023-06-07T01:32:55.143Z,16.80
2023-06-07T01:35:23.658Z,16.80
2023-06-07T01:37:53.046Z,16.80
2023-06-07T01:40:22.355Z,16.80
2023-06-07T01:42:52.676Z,16.80
2023-06-07T01:45:21.072Z,16.90
2023-06-07T01:47:49.237Z,16.80
2023-06-07T01:50:22.826Z,16.90
2023-06-07T01:52:50.870Z,16.80
2023-06-07T01:55:19.326Z,16.70
2023-06-07T01:57:59.211Z,16.70
2023-06-07T02:00:31.465Z,16.60
2023-06-07T02:03:03.549Z,16.60
2023-06-07T02:05:35.631Z,16.60
2023-06-07T02:08:09.502Z,16.50
2023-06-07T02:10:40.759Z,16.50
2023-06-07T02:13:10.928Z,16.50
2023-06-07T02:15:38.948Z,16.50
2023-06-07T02:18:07.086Z,16.50
2023-06-07T02:20:35.896Z,16.50
2023-06-07T02:23:04.008Z,16.50
2023-06-07T02:25:32.413Z,16.40
2023-06-07T02:28:01.095Z,16.30
2023-06-07T02:30:30.342Z,16.40
2023-06-07T02:32:58.212Z,16.30
2023-06-07T02:35:26.168Z,16.20
2023-06-07T02:37:54.174Z,16.20
2023-06-07T02:40:21.971Z,16.20
2023-06-07T02:42:50.489Z,16.10
2023-06-07T02:45:18.345Z,16.10
2023-06-07T02:47:47.663Z,16.10
2023-06-07T02:50:15.630Z,16.10
2023-06-07T02:52:45.397Z,16.10
2023-06-07T02:55:13.254Z,16.10
2023-06-07T02:57:41.767Z,16.10
2023-06-07T03:00:13.038Z,16.10
2023-06-07T03:02:41.306Z,16.00
2023-06-07T03:05:11.138Z,16.00
2023-06-07T03:07:41.511Z,15.90
2023-06-07T03:10:10.406Z,15.90
2023-06-07T03:12:38.249Z,15.80
2023-06-07T03:15:08.903Z,15.80
2023-06-07T03:17:36.991Z,15.80
2023-06-07T03:20:07.553Z,15.70
2023-06-07T03:22:37.782Z,15.70
2023-06-07T03:25:07.769Z,15.70
2023-06-07T03:27:36.052Z,15.70
2023-06-07T03:30:06.426Z,15.70
2023-06-07T03:32:34.688Z,15.70
2023-06-07T03:35:02.549Z,15.70
2023-06-07T03:37:30.386Z,15.70
2023-06-07T03:39:59.536Z,15.70
2023-06-07T03:42:27.431Z,15.70
2023-06-07T03:44:55.240Z,15.60
2023-06-07T03:47:23.401Z,15.60
2023-06-07T03:49:51.366Z,15.60
2023-06-07T03:52:19.286Z,15.50
2023-06-07T03:54:47.181Z,15.60
2023-06-07T03:57:16.353Z,15.60
2023-06-07T03:59:44.287Z,15.60
2023-06-07T04:02:12.114Z,15.50
2023-06-07T04:04:43.706Z,15.60
2023-06-07T04:07:11.586Z,15.60
2023-06-07T04:09:41.027Z,15.50
2023-06-07T04:12:09.646Z,15.50
2023-06-07T04:14:38.873Z,15.50
2023-06-07T04:17:07.532Z,15.50
2023-06-07T04:19:35.359Z,15.60
2023-06-07T04:22:05.656Z,15.60
2023-06-07T04:24:33.568Z,15.60
2023-06-07T04:27:02.349Z,15.60
2023-06-07T04:29:31.539Z,15.70
2023-06-07T04:32:02.854Z,15.60
2023-06-07T04:34:33.075Z,15.70
2023-06-07T04:37:04.899Z,15.70
2023-06-07T04:39:33.985Z,15.80
2023-06-07T04:42:04.383Z,15.70
2023-06-07T04:44:32.332Z,15.80
2023-06-07T04:47:08.154Z,15.70
2023-06-07T04:49:39.678Z,15.80
2023-06-07T04:52:08.523Z,17.00
2023-06-07T04:54:37.484Z,17.60
2023-06-07T04:57:07.787Z,17.90
2023-06-07T04:59:42.831Z,18.20
2023-06-07T05:02:12.186Z,18.20
2023-06-07T05:04:40.382Z,18.50
2023-06-07T05:07:08.348Z,18.60
2023-06-07T05:09:36.478Z,18.60
2023-06-07T05:12:05.036Z,18.80
2023-06-07T05:14:33.186Z,18.90
2023-06-07T05:17:01.158Z,19.00
2023-06-07T05:19:31.009Z,19.10
2023-06-07T05:21:58.939Z,19.30
2023-06-07T05:24:27.128Z,19.40
2023-06-07T05:26:55.057Z,19.50
2023-06-07T05:29:22.883Z,19.70
2023-06-07T05:31:50.775Z,20.00
2023-06-07T05:34:18.671Z,19.80
2023-06-07T05:36:48.859Z,20.10
2023-06-07T05:39:16.833Z,20.30
2023-06-07T05:41:44.850Z,20.70
2023-06-07T05:44:12.749Z,20.60
2023-06-07T05:46:41.137Z,20.40
2023-06-07T05:49:09.037Z,20.70
2023-06-07T05:51:37.674Z,20.50
2023-06-07T05:54:07.886Z,20.60
2023-06-07T05:56:35.936Z,20.70
2023-06-07T05:59:03.835Z,21.60
2023-06-07T06:01:32.013Z,22.20
2023-06-07T06:03:59.861Z,22.00
2023-06-07T06:06:27.705Z,22.10
2023-06-07T06:08:55.628Z,22.40
2023-06-07T06:11:24.958Z,22.40
2023-06-07T06:13:53.038Z,22.50
2023-06-07T06:16:20.896Z,23.30
2023-06-07T06:18:48.731Z,22.50
2023-06-07T06:21:16.901Z,22.50
2023-06-07T06:23:44.854Z,22.70
2023-06-07T06:26:12.777Z,22.40
2023-06-07T06:28:42.209Z,22.60
2023-06-07T06:31:10.221Z,23.40
2023-06-07T06:33:38.093Z,23.80
2023-06-07T06:36:06.408Z,24.20
2023-06-07T06:38:34.267Z,24.50
2023-06-07T06:41:02.240Z,24.80
2023-06-07T06:43:30.165Z,25.00
2023-06-07T06:45:59.388Z,24.50
2023-06-07T06:48:27.324Z,24.70
2023-06-07T06:50:55.296Z,24.30
2023-06-07T06:53:23.215Z,25.30
2023-06-07T06:55:51.166Z,25.10
2023-06-07T06:58:20.406Z,24.40
2023-06-07T07:00:48.290Z,25.60
2023-06-07T07:03:17.483Z,26.10
2023-06-07T07:05:45.390Z,25.90
2023-06-07T07:08:13.371Z,25.30
2023-06-07T07:10:41.311Z,25.40
2023-06-07T07:13:09.172Z,25.30
2023-06-07T07:15:37.300Z,24.90
2023-06-07T07:18:06.118Z,24.50
2023-06-07T07:20:36.203Z,25.30
2023-06-07T07:23:04.299Z,26.00
2023-06-07T07:25:32.319Z,25.30
2023-06-07T07:28:00.204Z,25.10
2023-06-07T07:30:28.099Z,25.50
2023-06-07T07:32:56.367Z,25.20
2023-06-07T07:35:24.591Z,25.50
2023-06-07T07:37:54.788Z,25.30
2023-06-07T07:40:22.820Z,26.40
2023-06-07T07:42:51.051Z,26.40
2023-06-07T07:45:19.045Z,24.40
2023-06-07T07:47:47.066Z,23.60
2023-06-07T07:50:17.496Z,22.60
2023-06-07T07:52:45.348Z,21.60
2023-06-07T07:55:14.546Z,21.90
2023-06-07T07:57:43.846Z,22.60
2023-06-07T08:00:14.685Z,21.50
2023-06-07T08:02:42.797Z,21.00
2023-06-07T08:05:11.457Z,22.00
2023-06-07T08:07:39.348Z,22.20
2023-06-07T08:10:09.252Z,23.20
2023-06-07T08:12:38.434Z,23.10
2023-06-07T08:15:07.123Z,22.50
2023-06-07T08:17:34.965Z,22.50
2023-06-07T08:20:05.902Z,22.40
2023-06-07T08:22:34.160Z,22.40
2023-06-07T08:25:01.983Z,22.20
2023-06-07T08:27:29.783Z,22.10
2023-06-07T08:29:59.038Z,22.50
2023-06-07T08:32:26.927Z,22.10
2023-06-07T08:34:56.623Z,21.90
2023-06-07T08:37:24.615Z,21.80
2023-06-07T08:39:52.468Z,22.30
2023-06-07T08:42:20.332Z,22.30
2023-06-07T08:44:48.382Z,22.00
2023-06-07T08:47:18.693Z,22.20
2023-06-07T08:49:46.971Z,22.40
2023-06-07T08:52:17.160Z,23.60
2023-06-07T08:54:47.762Z,22.80
2023-06-07T08:57:17.636Z,21.80
2023-06-07T08:59:46.252Z,21.50
2023-06-07T09:02:14.739Z,21.70
2023-06-07T09:04:44.766Z,22.20
2023-06-07T09:07:12.822Z,22.50
2023-06-07T09:09:42.752Z,22.80
2023-06-07T09:12:11.846Z,23.70
2023-06-07T09:14:39.708Z,24.80
2023-06-07T09:17:07.699Z,25.30
2023-06-07T09:19:37.837Z,25.70
2023-06-07T09:22:08.929Z,25.20
2023-06-07T09:24:38.763Z,24.80
2023-06-07T09:27:07.431Z,24.10
2023-06-07T09:29:40.788Z,24.80
2023-06-07T09:32:22.158Z,25.10
2023-06-07T09:34:53.298Z,25.10
2023-06-07T09:37:23.106Z,25.10
2023-06-07T09:39:53.333Z,25.20
2023-06-07T09:42:21.910Z,25.20
2023-06-07T09:44:51.888Z,23.90
2023-06-07T09:47:24.289Z,24.60
2023-06-07T09:50:01.562Z,25.50
2023-06-07T09:52:31.103Z,25.80
2023-06-07T09:54:58.972Z,26.10
2023-06-07T09:57:31.328Z,25.70
2023-06-07T10:00:01.438Z,25.60
2023-06-07T10:02:30.551Z,25.50
2023-06-07T10:04:59.878Z,25.30
2023-06-07T10:07:33.076Z,25.50
2023-06-07T10:10:02.365Z,25.40
2023-06-07T10:12:32.825Z,25.50
2023-06-07T10:15:04.695Z,25.40
2023-06-07T10:17:42.873Z,24.90
2023-06-07T10:20:17.529Z,24.80
2023-06-07T10:22:47.831Z,24.90
2023-06-07T10:25:18.602Z,25.00
2023-06-07T10:28:10.033Z,24.50
2023-06-07T10:30:44.552Z,25.10
2023-06-07T10:33:13.286Z,25.30
2023-06-07T10:35:42.680Z,25.00
2023-06-07T10:38:12.380Z,25.60
2023-06-07T10:40:40.778Z,25.60
2023-06-07T10:43:08.817Z,25.10
2023-06-07T10:45:36.690Z,25.50
2023-06-07T10:48:33.640Z,25.90
2023-06-07T10:51:01.451Z,26.10
2023-06-07T10:53:50.543Z,26.20
2023-06-07T10:56:32.524Z,24.90
2023-06-07T10:59:24.281Z,24.70
2023-06-07T11:01:55.319Z,24.80
2023-06-07T11:04:52.355Z,24.80
2023-06-07T11:07:22.033Z,25.30
2023-06-07T11:10:12.019Z,24.50
2023-06-07T11:12:59.189Z,25.30
2023-06-07T11:15:31.822Z,26.00
2023-06-07T11:18:01.109Z,26.20
2023-06-07T11:20:52.522Z,25.00
2023-06-07T11:23:28.430Z,24.90
2023-06-07T11:26:01.471Z,24.80
2023-06-07T11:28:32.988Z,24.80
2023-06-07T11:31:01.651Z,24.70
2023-06-07T11:33:31.996Z,24.30
2023-06-07T11:35:59.967Z,25.80
2023-06-07T11:38:30.627Z,25.40
2023-06-07T11:40:59.870Z,25.80
2023-06-07T11:43:29.146Z,24.70
2023-06-07T11:45:58.263Z,25.00
2023-06-07T11:48:28.846Z,24.80
2023-06-07T11:50:57.276Z,24.80
2023-06-07T11:53:29.599Z,25.40
2023-06-07T11:55:59.074Z,26.10
2023-06-07T11:58:27.249Z,26.40
2023-06-07T12:00:55.256Z,25.00
2023-06-07T12:03:24.071Z,24.50
2023-06-07T12:05:54.219Z,23.50
2023-06-07T12:08:23.401Z,23.80
2023-06-07T12:10:54.939Z,24.90
2023-06-07T12:13:25.340Z,24.80
2023-06-07T12:15:56.571Z,24.60
2023-06-07T12:18:27.953Z,25.10
2023-06-07T12:21:04.058Z,24.90
2023-06-07T12:23:32.354Z,24.70
2023-06-07T12:26:11.369Z,25.10
2023-06-07T12:28:43.178Z,25.00
2023-06-07T12:31:18.997Z,25.10
2023-06-07T12:33:57.263Z,25.40
2023-06-07T12:36:28.252Z,24.90
2023-06-07T12:39:01.353Z,24.20
2023-06-07T12:41:29.605Z,24.30
2023-06-07T12:44:00.273Z,25.00
2023-06-07T12:46:28.161Z,25.50
2023-06-07T12:48:56.116Z,25.40
2023-06-07T12:51:24.040Z,25.60
2023-06-07T12:53:51.985Z,25.30
2023-06-07T12:56:19.829Z,25.90
2023-06-07T12:58:47.700Z,25.90
2023-06-07T13:01:17.361Z,25.90
2023-06-07T13:03:46.228Z,25.90
2023-06-07T13:06:14.138Z,27.00
2023-06-07T13:08:44.629Z,26.30
2023-06-07T13:11:12.807Z,26.70
2023-06-07T13:13:41.248Z,26.00
2023-06-07T13:16:09.829Z,25.50
2023-06-07T13:18:40.574Z,25.90
2023-06-07T13:21:08.957Z,26.30
2023-06-07T13:23:36.864Z,26.20
2023-06-07T13:26:04.863Z,26.40
2023-06-07T13:28:32.923Z,26.40
2023-06-07T13:31:00.730Z,25.80
2023-06-07T13:33:28.596Z,26.30
2023-06-07T13:35:57.796Z,26.70
2023-06-07T13:38:25.595Z,25.70
2023-06-07T13:40:53.512Z,26.70
2023-06-07T13:43:27.685Z,26.40
2023-06-07T13:45:59.546Z,25.50
2023-06-07T13:48:27.427Z,27.10
2023-06-07T13:50:56.752Z,26.80
2023-06-07T13:53:25.309Z,26.90
2023-06-07T13:55:53.191Z,27.30
2023-06-07T13:58:21.847Z,27.00
2023-06-07T14:00:49.747Z,27.80
2023-06-07T14:03:17.789Z,27.70
2023-06-07T14:05:45.782Z,27.90
2023-06-07T14:08:15.364Z,27.40
2023-06-07T14:10:43.273Z,27.50
2023-06-07T14:13:11.498Z,27.00
2023-06-07T14:15:39.317Z,27.30
2023-06-07T14:18:07.259Z,27.10
2023-06-07T14:20:35.194Z,25.90
2023-06-07T14:23:03.049Z,25.40
2023-06-07T14:25:32.578Z,25.90
2023-06-07T14:28:00.595Z,26.50
2023-06-07T14:30:28.472Z,26.30
2023-06-07T14:32:56.673Z,25.60
2023-06-07T14:35:24.622Z,25.80
2023-06-07T14:37:52.512Z,26.80
2023-06-07T14:40:20.822Z,26.50
2023-06-07T14:42:50.041Z,26.10
2023-06-07T14:45:17.931Z,26.10
2023-06-07T14:47:46.024Z,26.00
2023-06-07T14:50:14.001Z,25.60
2023-06-07T14:52:41.894Z,26.00
2023-06-07T14:55:11.121Z,25.50
2023-06-07T14:57:39.266Z,25.80
2023-06-07T15:00:10.713Z,25.80
2023-06-07T15:02:38.672Z,25.40
2023-06-07T15:05:08.847Z,25.90
2023-06-07T15:07:37.002Z,26.30
2023-06-07T15:10:06.096Z,26.30
2023-06-07T15:12:34.296Z,26.30
2023-06-07T15:15:02.497Z,25.60
2023-06-07T15:17:31.695Z,25.90
2023-06-07T15:19:59.618Z,25.40
2023-06-07T15:22:27.614Z,25.80
2023-06-07T15:24:55.513Z,25.50
2023-06-07T15:27:23.359Z,25.90
2023-06-07T15:29:51.204Z,25.80
2023-06-07T15:32:19.020Z,25.70
2023-06-07T15:34:48.170Z,25.20
2023-06-07T15:37:16.038Z,24.90
2023-06-07T15:39:46.390Z,25.20
2023-06-07T15:42:14.861Z,25.20
2023-06-07T15:44:43.421Z,25.60
2023-06-07T15:47:11.641Z,25.50
2023-06-07T15:49:39.562Z,25.40
2023-06-07T15:52:09.013Z,25.30
2023-06-07T15:54:36.847Z,25.10
2023-06-07T15:57:06.828Z,24.80
2023-06-07T15:59:36.177Z,24.70
2023-06-07T16:02:04.274Z,24.80
2023-06-07T16:04:32.923Z,25.00
2023-06-07T16:07:01.890Z,25.20
2023-06-07T16:09:31.092Z,25.30
2023-06-07T16:11:58.900Z,25.30
2023-06-07T16:14:26.874Z,25.10
2023-06-07T16:16:54.980Z,25.30
2023-06-07T16:19:22.866Z,25.40
2023-06-07T16:21:50.915Z,25.20
2023-06-07T16:24:18.906Z,25.00
2023-06-07T16:26:48.092Z,24.60
2023-06-07T16:29:15.954Z,25.00
2023-06-07T16:31:43.901Z,25.30
2023-06-07T16:34:11.827Z,25.20
2023-06-07T16:36:39.821Z,25.20
2023-06-07T16:39:08.982Z,25.30
2023-06-07T16:41:41.313Z,25.10
2023-06-07T16:44:11.171Z,25.10
2023-06-07T16:46:39.799Z,24.80
2023-06-07T16:49:08.007Z,25.10
2023-06-07T16:51:36.009Z,24.90
2023-06-07T16:54:03.870Z,24.80
2023-06-07T16:56:31.704Z,24.90
2023-06-07T16:58:59.572Z,25.00
2023-06-07T17:01:30.542Z,25.30
2023-06-07T17:03:58.556Z,25.00
2023-06-07T17:06:26.563Z,24.70
2023-06-07T17:08:54.480Z,24.80
2023-06-07T17:11:22.331Z,24.70
2023-06-07T17:13:50.455Z,24.70
2023-06-07T17:16:18.456Z,24.90
2023-06-07T17:18:48.140Z,25.00
2023-06-07T17:21:16.012Z,24.80
2023-06-07T17:23:43.878Z,24.60
2023-06-07T17:26:11.792Z,24.50
2023-06-07T17:28:39.707Z,24.60
2023-06-07T17:31:07.694Z,24.60
2023-06-07T17:33:35.899Z,24.80
2023-06-07T17:36:05.470Z,24.90
2023-06-07T17:38:33.296Z,24.90
2023-06-07T17:41:01.260Z,25.00
2023-06-07T17:43:30.296Z,25.10
2023-06-07T17:45:58.179Z,24.80
2023-06-07T17:48:26.399Z,24.90
2023-06-07T17:50:55.189Z,24.80
2023-06-07T17:53:24.371Z,24.80
2023-06-07T17:55:52.165Z,24.80
2023-06-07T17:58:20.016Z,24.70
2023-06-07T18:00:47.848Z,24.80
2023-06-07T18:03:20.327Z,24.80
2023-06-07T18:05:48.473Z,24.60
2023-06-07T18:08:16.350Z,24.70
2023-06-07T18:10:45.664Z,24.50
2023-06-07T18:13:13.503Z,24.60
2023-06-07T18:15:41.425Z,24.60
2023-06-07T18:18:09.424Z,24.50
2023-06-07T18:20:37.672Z,24.50
2023-06-07T18:23:05.717Z,24.50
2023-06-07T18:25:33.779Z,24.50
2023-06-07T18:28:03.001Z,24.40
2023-06-07T18:30:31.560Z,24.40
2023-06-07T18:32:59.849Z,24.40
2023-06-07T18:35:27.745Z,24.40
2023-06-07T18:37:55.549Z,24.30
2023-06-07T18:40:23.384Z,24.30
2023-06-07T18:42:51.350Z,24.30
2023-06-07T18:45:20.589Z,24.20
2023-06-07T18:47:48.562Z,24.20
2023-06-07T18:50:17.611Z,24.10
2023-06-07T18:52:45.452Z,24.10
2023-06-07T18:55:13.269Z,24.00
2023-06-07T18:57:41.386Z,24.00
2023-06-07T19:00:10.365Z,24.00
2023-06-07T19:02:40.186Z,24.00
2023-06-07T19:05:09.461Z,23.90
2023-06-07T19:07:37.283Z,23.90
2023-06-07T19:10:05.963Z,23.80
2023-06-07T19:12:33.866Z,23.80
2023-06-07T19:15:01.658Z,23.80
2023-06-07T19:17:29.608Z,23.70
2023-06-07T19:20:00.527Z,23.70
2023-06-07T19:22:28.561Z,23.60
2023-06-07T19:24:56.452Z,23.60
2023-06-07T19:27:24.295Z,23.60
2023-06-07T19:29:52.165Z,23.50
2023-06-07T19:32:20.034Z,23.50
2023-06-07T19:34:49.845Z,23.40
2023-06-07T19:37:20.410Z,23.40
2023-06-07T19:39:48.244Z,23.30
2023-06-07T19:42:19.839Z,23.30
2023-06-07T19:44:47.671Z,23.20
2023-06-07T19:47:15.557Z,23.20
2023-06-07T19:49:43.390Z,23.20
2023-06-07T19:52:11.222Z,23.20
2023-06-07T19:54:40.459Z,23.10
2023-06-07T19:57:09.195Z,23.10
2023-06-07T19:59:38.765Z,23.00
2023-06-07T20:02:07.994Z,23.00
2023-06-07T20:04:36.084Z,23.00
2023-06-07T20:07:07.389Z,23.00
2023-06-07T20:09:36.856Z,22.90
2023-06-07T20:12:07.961Z,22.90
2023-06-07T20:14:36.655Z,22.80
2023-06-07T20:17:04.912Z,22.80
2023-06-07T20:19:32.774Z,22.70
2023-06-07T20:22:00.602Z,22.70
2023-06-07T20:24:45.048Z,22.70
2023-06-07T20:27:14.235Z,22.70
2023-06-07T20:29:42.770Z,22.60
2023-06-07T20:32:11.942Z,22.60
2023-06-07T20:34:39.906Z,22.50
2023-06-07T20:37:07.822Z,22.50
2023-06-07T20:39:36.129Z,22.40
2023-06-07T20:42:04.702Z,22.40
2023-06-07T20:44:43.990Z,22.30
2023-06-07T20:47:19.660Z,22.30
2023-06-07T20:49:47.554Z,22.30
2023-06-07T20:52:15.968Z,22.20
2023-06-07T20:54:43.904Z,22.20
2023-06-07T20:57:11.732Z,22.20
2023-06-07T20:59:45.943Z,22.10
2023-06-07T21:02:13.832Z,22.10
2023-06-07T21:04:41.667Z,22.00
2023-06-07T21:07:09.878Z,22.00
2023-06-07T21:09:37.724Z,22.00
2023-06-07T21:12:07.248Z,22.00
2023-06-07T21:14:35.243Z,21.90
2023-06-07T21:17:04.546Z,21.90
2023-06-07T21:19:32.444Z,21.80
2023-06-07T21:22:00.396Z,21.70
2023-06-07T21:24:28.242Z,21.70
2023-06-07T21:26:56.104Z,21.70
2023-06-07T21:29:23.974Z,21.70
2023-06-07T21:31:51.778Z,21.70
2023-06-07T21:34:20.963Z,21.60
2023-06-07T21:36:48.857Z,21.60
2023-06-07T21:39:16.677Z,21.60
2023-06-07T21:41:44.561Z,21.60
2023-06-07T21:44:12.383Z,21.40
2023-06-07T21:46:40.249Z,21.40
2023-06-07T21:49:08.116Z,21.40
2023-06-07T21:51:40.435Z,21.40
2023-06-07T21:54:08.998Z,21.40
2023-06-07T21:56:36.863Z,21.30
2023-06-07T21:59:04.710Z,21.30
2023-06-07T22:01:32.591Z,21.30
2023-06-07T22:04:00.506Z,21.30
2023-06-07T22:06:28.360Z,21.20
2023-06-07T22:08:57.842Z,21.20
2023-06-07T22:11:25.947Z,21.10
2023-06-07T22:13:53.873Z,21.10
2023-06-07T22:16:21.900Z,21.10
2023-06-07T22:18:50.762Z,21.00
2023-06-07T22:21:18.629Z,21.00
2023-06-07T22:23:46.517Z,20.90
2023-06-07T22:26:16.141Z,21.00
2023-06-07T22:28:44.001Z,20.90
2023-06-07T22:31:11.874Z,20.80
2023-06-07T22:33:39.716Z,20.80
2023-06-07T22:36:08.160Z,20.80
2023-06-07T22:38:36.039Z,20.70
2023-06-07T22:41:03.905Z,20.70
2023-06-07T22:43:33.778Z,20.70
2023-06-07T22:46:01.610Z,20.70
2023-06-07T22:48:29.829Z,20.60
2023-06-07T22:50:58.043Z,20.60
2023-06-07T22:53:25.889Z,20.50
2023-06-07T22:55:53.892Z,20.50
2023-06-07T23:01:05.155Z,20.40
2023-06-07T23:03:33.741Z,20.40
2023-06-07T23:06:02.370Z,20.40
2023-06-07T23:08:30.868Z,20.30
2023-06-07T23:10:58.690Z,20.30
2023-06-07T23:13:27.915Z,20.30
2023-06-07T23:15:56.576Z,20.20
2023-06-07T23:18:31.504Z,20.30
2023-06-07T23:21:02.066Z,20.20
2023-06-07T23:23:30.326Z,20.10
2023-06-07T23:25:58.350Z,20.10
2023-06-07T23:28:26.186Z,20.00
2023-06-07T23:30:54.048Z,20.10
2023-06-07T23:33:21.999Z,20.00
2023-06-07T23:35:51.464Z,19.90
2023-06-07T23:38:19.337Z,19.80
2023-06-07T23:40:47.182Z,19.70
2023-06-07T23:43:15.048Z,19.80
2023-06-07T23:45:42.931Z,19.80
2023-06-07T23:48:11.631Z,19.80
2023-06-07T23:50:39.564Z,19.70
2023-06-07T23:53:09.608Z,19.70
2023-06-07T23:55:37.484Z,19.70
2023-06-07T23:58:05.348Z,19.60
